createdAt,value
2018-04-30T00:00:44.233Z,12.81
2018-04-30T00:03:11.960Z,12.98
2018-04-30T00:05:39.751Z,13.06
2018-04-30T00:08:07.406Z,13.01
2018-04-30T00:10:35.113Z,12.90
2018-04-30T00:13:02.693Z,12.80
2018-04-30T00:15:30.409Z,12.82
2018-04-30T00:17:58.028Z,12.85
2018-04-30T00:20:25.721Z,12.88
2018-04-30T00:22:53.299Z,12.85
2018-04-30T00:25:21.049Z,12.77
2018-04-30T00:27:48.716Z,12.67
2018-04-30T00:30:16.364Z,12.70
2018-04-30T00:32:43.982Z,12.74
2018-04-30T00:35:11.690Z,12.78
2018-04-30T00:37:39.251Z,12.79
2018-04-30T00:40:06.874Z,12.76
2018-04-30T00:42:34.444Z,12.73
2018-04-30T00:45:02.150Z,12.61
2018-04-30T00:47:29.768Z,12.57
2018-04-30T00:49:57.418Z,12.45
2018-04-30T00:52:25.167Z,12.37
2018-04-30T00:55:00.732Z,12.45
2018-04-30T00:57:28.454Z,12.56
2018-04-30T00:59:56.090Z,12.44
2018-04-30T01:02:23.711Z,12.36
2018-04-30T01:04:51.430Z,12.33
2018-04-30T01:07:19.000Z,12.27
2018-04-30T01:09:46.619Z,12.28
2018-04-30T01:12:19.124Z,12.08
2018-04-30T01:14:46.729Z,11.99
2018-04-30T01:17:14.310Z,11.98
2018-04-30T01:19:41.915Z,11.84
2018-04-30T01:22:09.577Z,12.15
2018-04-30T01:24:37.226Z,12.04
2018-04-30T01:27:04.800Z,12.23
2018-04-30T01:29:32.552Z,12.20
2018-04-30T01:32:00.131Z,12.12
2018-04-30T01:34:27.877Z,12.29
2018-04-30T01:36:55.656Z,12.56
2018-04-30T01:39:23.232Z,12.44
2018-04-30T01:41:50.864Z,12.35
2018-04-30T01:44:18.726Z,12.29
2018-04-30T01:46:46.311Z,12.49
2018-04-30T01:49:13.886Z,12.51
2018-04-30T01:51:41.567Z,12.48
2018-04-30T01:54:09.230Z,12.46
2018-04-30T01:56:36.838Z,12.39
2018-04-30T01:59:04.507Z,12.22
2018-04-30T02:01:32.159Z,12.09
2018-04-30T02:03:59.825Z,11.98
2018-04-30T02:06:27.444Z,11.89
2018-04-30T02:08:55.022Z,11.79
2018-04-30T02:11:22.807Z,11.81
2018-04-30T02:13:50.483Z,11.74
2018-04-30T02:16:18.070Z,11.75
2018-04-30T02:18:45.654Z,11.68
2018-04-30T02:21:13.390Z,11.70
2018-04-30T02:23:41.236Z,11.66
2018-04-30T02:26:08.977Z,11.60
2018-04-30T02:28:36.656Z,11.49
2018-04-30T02:31:04.228Z,11.45
2018-04-30T02:33:31.925Z,11.62
2018-04-30T02:35:59.635Z,11.53
2018-04-30T02:38:27.207Z,11.42
2018-04-30T02:40:54.973Z,11.41
2018-04-30T02:43:22.599Z,11.37
2018-04-30T02:45:50.288Z,11.35
2018-04-30T02:48:17.870Z,11.27
2018-04-30T02:50:45.479Z,11.17
2018-04-30T02:53:13.065Z,11.11
2018-04-30T02:55:40.646Z,11.05
2018-04-30T02:58:08.393Z,11.19
2018-04-30T03:00:36.063Z,11.14
2018-04-30T03:03:03.652Z,11.07
2018-04-30T03:05:31.288Z,11.04
2018-04-30T03:07:59.040Z,11.08
2018-04-30T03:10:26.705Z,11.25
2018-04-30T03:12:54.343Z,11.33
2018-04-30T03:15:21.924Z,11.54
2018-04-30T03:17:49.503Z,11.56
2018-04-30T03:20:17.352Z,11.45
2018-04-30T03:22:44.934Z,11.50
2018-04-30T03:25:12.899Z,11.83
2018-04-30T03:27:40.543Z,11.77
2018-04-30T03:30:08.125Z,11.88
2018-04-30T03:32:35.878Z,11.94
2018-04-30T03:35:03.544Z,11.99
2018-04-30T03:37:31.126Z,12.04
2018-04-30T03:39:58.870Z,12.10
2018-04-30T03:42:26.482Z,12.21
2018-04-30T03:44:54.181Z,12.37
2018-04-30T03:47:21.840Z,12.79
2018-04-30T03:49:49.498Z,13.37
2018-04-30T03:52:17.203Z,14.23
2018-04-30T03:54:44.782Z,14.83
2018-04-30T03:57:12.488Z,15.35
2018-04-30T03:59:40.164Z,15.74
2018-04-30T04:02:19.691Z,16.35
2018-04-30T04:04:58.936Z,16.99
2018-04-30T04:07:26.692Z,17.63
2018-04-30T04:09:54.264Z,18.06
2018-04-30T04:12:21.840Z,18.34
2018-04-30T04:14:49.505Z,18.55
2018-04-30T04:17:17.068Z,18.78
2018-04-30T04:19:44.652Z,18.99
2018-04-30T04:22:12.252Z,19.45
2018-04-30T04:24:39.826Z,19.86
2018-04-30T04:27:07.403Z,20.08
2018-04-30T04:29:35.042Z,19.98
2018-04-30T04:32:02.709Z,20.58
2018-04-30T04:34:30.552Z,21.11
2018-04-30T04:36:58.181Z,21.61
2018-04-30T04:39:25.892Z,21.69
2018-04-30T04:41:53.467Z,22.15
2018-04-30T04:44:21.143Z,22.07
2018-04-30T04:46:48.733Z,22.20
2018-04-30T04:49:16.312Z,22.92
2018-04-30T04:51:43.916Z,23.71
2018-04-30T04:54:11.655Z,23.75
2018-04-30T04:56:39.230Z,24.36
2018-04-30T04:59:06.977Z,24.59
2018-04-30T05:01:34.656Z,25.32
2018-04-30T05:04:02.238Z,25.71
2018-04-30T05:06:29.977Z,25.70
2018-04-30T05:08:57.542Z,25.92
2018-04-30T05:11:25.305Z,26.26
2018-04-30T05:13:52.897Z,26.83
2018-04-30T05:16:20.490Z,27.12
2018-04-30T05:18:48.480Z,27.00
2018-04-30T05:21:16.199Z,26.97
2018-04-30T05:23:44.017Z,28.19
2018-04-30T05:26:11.683Z,28.45
2018-04-30T05:28:39.428Z,28.59
2018-04-30T05:31:07.212Z,29.47
2018-04-30T05:33:34.871Z,29.47
2018-04-30T05:36:02.525Z,29.60
2018-04-30T05:38:30.191Z,30.50
2018-04-30T05:40:57.855Z,30.93
2018-04-30T05:43:25.472Z,29.68
2018-04-30T05:45:53.122Z,30.01
2018-04-30T05:48:20.699Z,29.86
2018-04-30T05:50:48.299Z,30.39
2018-04-30T05:53:15.921Z,30.70
2018-04-30T05:55:43.636Z,31.44
2018-04-30T05:58:11.288Z,31.59
2018-04-30T06:00:38.888Z,31.93
2018-04-30T06:03:06.474Z,31.60
2018-04-30T06:05:34.095Z,31.87
2018-04-30T06:08:01.672Z,32.17
2018-04-30T06:10:29.392Z,32.63
2018-04-30T06:12:57.007Z,32.48
2018-04-30T06:15:24.732Z,32.43
2018-04-30T06:17:52.446Z,32.73
2018-04-30T06:20:22.729Z,32.96
2018-04-30T06:22:50.378Z,33.03
2018-04-30T06:25:18.456Z,33.92
2018-04-30T06:27:46.102Z,33.32
2018-04-30T06:30:13.679Z,34.03
2018-04-30T06:32:41.252Z,34.16
2018-04-30T06:35:08.888Z,34.42
2018-04-30T06:37:36.458Z,34.58
2018-04-30T06:40:04.219Z,36.05
2018-04-30T06:42:31.844Z,34.82
2018-04-30T06:44:59.524Z,35.61
2018-04-30T06:47:27.109Z,34.88
2018-04-30T06:49:54.716Z,35.22
2018-04-30T06:52:22.298Z,35.21
2018-04-30T06:54:49.980Z,35.19
2018-04-30T06:57:17.649Z,34.69
2018-04-30T06:59:45.302Z,34.80
2018-04-30T07:02:12.889Z,34.44
2018-04-30T07:04:40.501Z,34.72
2018-04-30T07:07:08.079Z,35.21
2018-04-30T07:09:35.866Z,34.98
2018-04-30T07:12:03.597Z,34.59
2018-04-30T07:14:31.182Z,35.38
2018-04-30T07:16:58.764Z,35.88
2018-04-30T07:19:26.389Z,34.87
2018-04-30T07:21:54.056Z,35.01
2018-04-30T07:24:21.635Z,35.48
2018-04-30T07:26:49.256Z,35.99
2018-04-30T07:29:17.033Z,35.74
2018-04-30T07:31:44.717Z,36.01
2018-04-30T07:34:12.333Z,36.02
2018-04-30T07:36:39.903Z,36.00
2018-04-30T07:39:07.542Z,35.73
2018-04-30T07:41:35.138Z,35.39
2018-04-30T07:44:02.812Z,34.06
2018-04-30T07:46:30.472Z,34.85
2018-04-30T07:48:58.092Z,35.35
2018-04-30T07:51:25.678Z,34.01
2018-04-30T07:53:53.647Z,35.10
2018-04-30T07:56:21.342Z,35.53
2018-04-30T07:58:49.056Z,35.49
2018-04-30T08:01:16.670Z,35.63
2018-04-30T08:03:44.313Z,34.89
2018-04-30T08:06:11.885Z,34.88
2018-04-30T08:08:39.462Z,34.98
2018-04-30T08:11:07.081Z,34.53
2018-04-30T08:13:34.662Z,35.01
2018-04-30T08:16:04.356Z,35.98
2018-04-30T08:18:31.958Z,36.08
2018-04-30T08:20:59.647Z,35.44
2018-04-30T08:23:27.452Z,35.30
2018-04-30T08:25:55.116Z,36.54
2018-04-30T08:28:22.785Z,36.08
2018-04-30T08:30:50.363Z,36.42
2018-04-30T08:33:17.955Z,36.25
2018-04-30T08:35:45.544Z,35.82
2018-04-30T08:38:13.220Z,36.07
2018-04-30T08:40:40.885Z,36.10
2018-04-30T08:43:08.467Z,35.73
2018-04-30T08:45:36.116Z,35.14
2018-04-30T08:48:03.760Z,33.76
2018-04-30T08:50:31.537Z,33.40
2018-04-30T08:52:59.127Z,34.44
2018-04-30T08:55:26.934Z,34.39
2018-04-30T08:57:54.527Z,36.01
2018-04-30T09:00:22.190Z,36.49
2018-04-30T09:02:49.766Z,36.49
2018-04-30T09:05:17.359Z,37.04
2018-04-30T09:07:44.959Z,37.22
2018-04-30T09:10:12.636Z,37.44
2018-04-30T09:12:40.211Z,37.93
2018-04-30T09:15:08.031Z,36.20
2018-04-30T09:17:35.583Z,36.32
2018-04-30T09:20:03.274Z,36.87
2018-04-30T09:22:30.857Z,37.06
2018-04-30T09:24:58.593Z,36.76
2018-04-30T09:27:26.271Z,36.91
2018-04-30T09:29:53.935Z,35.84
2018-04-30T09:32:21.602Z,34.44
2018-04-30T09:34:49.249Z,34.66
2018-04-30T09:37:16.833Z,36.09
2018-04-30T09:39:44.445Z,36.48
2018-04-30T09:42:12.044Z,36.91
2018-04-30T09:44:39.628Z,36.74
2018-04-30T09:47:07.385Z,36.39
2018-04-30T09:49:34.950Z,36.76
2018-04-30T09:52:02.532Z,36.27
2018-04-30T09:54:30.340Z,36.90
2018-04-30T09:56:57.917Z,37.17
2018-04-30T09:59:25.687Z,37.14
2018-04-30T10:01:53.329Z,37.36
2018-04-30T10:04:20.991Z,37.72
2018-04-30T10:06:48.608Z,36.80
2018-04-30T10:09:16.214Z,37.42
2018-04-30T10:11:43.824Z,37.65
2018-04-30T10:14:11.398Z,36.91
2018-04-30T10:16:39.011Z,36.70
2018-04-30T10:19:06.588Z,36.69
2018-04-30T10:21:34.162Z,36.98
2018-04-30T10:24:01.836Z,36.79
2018-04-30T10:26:29.405Z,37.65
2018-04-30T10:28:56.976Z,37.96
2018-04-30T10:31:24.654Z,37.60
2018-04-30T10:33:52.301Z,37.54
2018-04-30T10:36:19.994Z,36.99
2018-04-30T10:38:47.659Z,37.88
2018-04-30T10:41:15.303Z,36.54
2018-04-30T10:43:42.878Z,35.91
2018-04-30T10:46:10.482Z,35.54
2018-04-30T10:48:38.067Z,35.76
2018-04-30T10:51:05.954Z,36.12
2018-04-30T10:53:33.558Z,36.11
2018-04-30T10:56:01.296Z,36.62
2018-04-30T10:58:28.878Z,36.57
2018-04-30T11:00:56.505Z,36.63
2018-04-30T11:03:24.095Z,36.80
2018-04-30T11:05:51.742Z,37.35
2018-04-30T11:08:19.344Z,36.76
2018-04-30T11:10:47.063Z,37.37
2018-04-30T11:13:14.929Z,36.32
2018-04-30T11:15:42.777Z,35.74
2018-04-30T11:18:10.459Z,35.72
2018-04-30T11:20:38.034Z,34.60
2018-04-30T11:23:05.787Z,35.82
2018-04-30T11:25:33.435Z,35.56
2018-04-30T11:28:01.109Z,35.52
2018-04-30T11:30:28.719Z,36.11
2018-04-30T11:32:56.422Z,35.69
2018-04-30T11:35:24.007Z,35.68
2018-04-30T11:37:51.756Z,36.22
2018-04-30T11:40:19.873Z,36.18
2018-04-30T11:42:47.490Z,35.62
2018-04-30T11:45:15.125Z,34.76
2018-04-30T11:47:42.801Z,34.41
2018-04-30T11:50:10.405Z,33.03
2018-04-30T11:52:38.037Z,33.60
2018-04-30T11:55:05.630Z,33.86
2018-04-30T11:57:33.217Z,34.06
2018-04-30T12:00:00.922Z,33.45
2018-04-30T12:02:28.576Z,33.76
2018-04-30T12:04:56.516Z,33.82
2018-04-30T12:07:24.101Z,34.00
2018-04-30T12:09:51.687Z,34.43
2018-04-30T12:12:19.274Z,33.71
2018-04-30T12:14:46.918Z,33.81
2018-04-30T12:17:14.495Z,34.13
2018-04-30T12:19:42.095Z,35.17
2018-04-30T12:22:09.770Z,34.48
2018-04-30T12:24:37.347Z,34.25
2018-04-30T12:27:04.940Z,34.54
2018-04-30T12:29:32.568Z,33.37
2018-04-30T12:32:00.123Z,33.23
2018-04-30T12:34:27.739Z,34.26
2018-04-30T12:36:55.358Z,35.29
2018-04-30T12:39:22.950Z,35.40
2018-04-30T12:41:50.530Z,35.60
2018-04-30T12:44:18.152Z,34.26
2018-04-30T12:46:45.724Z,34.57
2018-04-30T12:49:13.322Z,34.04
2018-04-30T12:51:40.938Z,34.13
2018-04-30T12:54:08.565Z,33.26
2018-04-30T12:56:36.148Z,33.23
2018-04-30T12:59:03.771Z,32.99
2018-04-30T13:01:31.351Z,32.54
2018-04-30T13:03:58.946Z,32.08
2018-04-30T13:06:26.574Z,31.52
2018-04-30T13:08:54.166Z,31.51
2018-04-30T13:11:21.751Z,31.91
2018-04-30T13:13:49.399Z,32.01
2018-04-30T13:16:16.981Z,32.24
2018-04-30T13:18:44.614Z,31.72
2018-04-30T13:21:12.233Z,30.97
2018-04-30T13:23:39.803Z,31.09
2018-04-30T13:26:07.376Z,31.08
2018-04-30T13:28:35.079Z,30.68
2018-04-30T13:31:02.634Z,30.49
2018-04-30T13:33:30.224Z,30.58
2018-04-30T13:36:01.728Z,30.65
2018-04-30T13:38:29.312Z,30.58
2018-04-30T13:40:56.895Z,30.17
2018-04-30T13:43:24.504Z,29.92
2018-04-30T13:45:52.064Z,29.68
2018-04-30T13:48:19.624Z,29.53
2018-04-30T13:50:47.233Z,29.75
2018-04-30T13:53:14.803Z,29.96
2018-04-30T13:55:42.534Z,29.90
2018-04-30T13:58:10.215Z,29.88
2018-04-30T14:00:37.813Z,29.87
2018-04-30T14:03:05.382Z,29.89
2018-04-30T14:05:33.001Z,29.91
2018-04-30T14:08:00.689Z,29.94
2018-04-30T14:10:28.255Z,30.03
2018-04-30T14:12:56.011Z,30.17
2018-04-30T14:15:23.575Z,30.15
2018-04-30T14:17:51.158Z,30.31
2018-04-30T14:20:18.771Z,30.14
2018-04-30T14:22:46.352Z,30.02
2018-04-30T14:25:14.310Z,30.30
2018-04-30T14:27:41.926Z,30.62
2018-04-30T14:30:09.487Z,30.61
2018-04-30T14:32:37.064Z,29.98
2018-04-30T14:35:04.670Z,29.99
2018-04-30T14:37:32.240Z,30.11
2018-04-30T14:39:59.803Z,30.08
2018-04-30T14:42:27.390Z,29.99
2018-04-30T14:44:54.994Z,29.95
2018-04-30T14:47:22.561Z,29.64
2018-04-30T14:49:50.167Z,29.55
2018-04-30T14:52:17.738Z,29.43
2018-04-30T14:54:45.449Z,29.39
2018-04-30T14:57:13.046Z,28.92
2018-04-30T14:59:40.616Z,28.88
2018-04-30T15:02:08.182Z,28.81
2018-04-30T15:04:35.785Z,28.51
2018-04-30T15:07:03.355Z,28.40
2018-04-30T15:09:30.927Z,28.34
2018-04-30T15:11:58.552Z,28.15
2018-04-30T15:14:26.173Z,28.16
2018-04-30T15:16:53.752Z,28.34
2018-04-30T15:19:21.360Z,28.36
2018-04-30T15:21:48.922Z,28.40
2018-04-30T15:24:16.486Z,28.39
2018-04-30T15:26:44.078Z,28.27
2018-04-30T15:29:11.646Z,28.20
2018-04-30T15:31:39.228Z,28.20
2018-04-30T15:34:06.833Z,28.15
2018-04-30T15:36:34.412Z,28.05
2018-04-30T15:39:01.997Z,28.05
2018-04-30T15:41:29.599Z,28.01
2018-04-30T15:43:57.174Z,27.86
2018-04-30T15:46:24.758Z,27.74
2018-04-30T15:48:52.394Z,27.64
2018-04-30T15:51:19.970Z,27.54
2018-04-30T15:53:47.558Z,27.39
2018-04-30T15:56:15.180Z,27.24
2018-04-30T15:58:42.761Z,27.13
2018-04-30T16:01:10.335Z,26.97
2018-04-30T16:03:37.986Z,26.72
2018-04-30T16:06:05.564Z,26.42
2018-04-30T16:08:33.367Z,26.28
2018-04-30T16:11:01.527Z,26.08
2018-04-30T16:13:29.446Z,25.87
2018-04-30T16:15:57.296Z,25.77
2018-04-30T16:18:24.912Z,25.65
2018-04-30T16:20:52.527Z,25.55
2018-04-30T16:23:20.102Z,25.35
2018-04-30T16:25:47.699Z,25.19
2018-04-30T16:28:15.299Z,25.03
2018-04-30T16:30:42.898Z,24.85
2018-04-30T16:33:10.476Z,24.69
2018-04-30T16:35:38.092Z,24.55
2018-04-30T16:38:05.669Z,24.35
2018-04-30T16:40:33.247Z,24.05
2018-04-30T16:43:00.863Z,23.83
2018-04-30T16:45:28.446Z,23.76
2018-04-30T16:47:56.040Z,23.59
2018-04-30T16:50:23.684Z,23.49
2018-04-30T16:52:51.269Z,23.37
2018-04-30T16:55:18.840Z,23.24
2018-04-30T16:57:46.473Z,23.13
2018-04-30T17:00:14.098Z,22.99
2018-04-30T17:02:41.684Z,22.91
2018-04-30T17:05:09.247Z,22.84
2018-04-30T17:07:36.858Z,22.67
2018-04-30T17:10:04.483Z,22.60
2018-04-30T17:12:32.057Z,22.48
2018-04-30T17:14:59.919Z,22.35
2018-04-30T17:17:27.804Z,22.26
2018-04-30T17:19:55.476Z,22.20
2018-04-30T17:22:24.107Z,22.07
2018-04-30T17:24:51.687Z,21.95
2018-04-30T17:27:19.284Z,21.82
2018-04-30T17:29:46.901Z,21.70
2018-04-30T17:32:14.485Z,21.57
2018-04-30T17:34:42.516Z,21.44
2018-04-30T17:37:10.335Z,21.30
2018-04-30T17:39:37.931Z,21.23
2018-04-30T17:42:05.523Z,21.24
2018-04-30T17:44:33.122Z,21.18
2018-04-30T17:47:00.752Z,21.14
2018-04-30T17:49:28.367Z,21.03
2018-04-30T17:51:56.052Z,20.92
2018-04-30T17:54:23.766Z,20.82
2018-04-30T17:56:51.368Z,20.70
2018-04-30T17:59:18.974Z,20.68
2018-04-30T18:01:46.544Z,20.64
2018-04-30T18:04:14.131Z,20.56
2018-04-30T18:06:41.816Z,20.50
2018-04-30T18:09:09.375Z,20.44
2018-04-30T18:11:36.958Z,20.29
2018-04-30T18:14:04.654Z,20.27
2018-04-30T18:16:32.235Z,20.20
2018-04-30T18:18:59.860Z,20.14
2018-04-30T18:21:27.453Z,20.14
2018-04-30T18:23:55.082Z,20.10
2018-04-30T18:26:22.683Z,20.14
2018-04-30T18:28:50.647Z,20.14
2018-04-30T18:31:18.274Z,20.09
2018-04-30T18:33:45.847Z,20.00
2018-04-30T18:36:13.459Z,19.93
2018-04-30T18:38:41.647Z,19.91
2018-04-30T18:41:10.297Z,19.85
2018-04-30T18:43:40.597Z,19.88
2018-04-30T18:46:08.435Z,19.81
2018-04-30T18:48:36.017Z,19.75
2018-04-30T18:51:03.643Z,19.59
2018-04-30T18:53:31.218Z,19.53
2018-04-30T18:55:58.791Z,19.45
2018-04-30T18:58:26.434Z,19.37
2018-04-30T19:00:54.016Z,19.36
2018-04-30T19:03:21.596Z,19.41
2018-04-30T19:05:49.216Z,19.35
2018-04-30T19:08:16.800Z,19.38
2018-04-30T19:10:44.370Z,19.38
2018-04-30T19:13:11.976Z,19.28
2018-04-30T19:15:39.690Z,19.21
2018-04-30T19:18:07.534Z,19.19
2018-04-30T19:20:35.135Z,19.12
2018-04-30T19:23:02.712Z,18.98
2018-04-30T19:25:30.292Z,18.88
2018-04-30T19:27:57.908Z,18.80
2018-04-30T19:30:25.652Z,18.79
2018-04-30T19:32:53.242Z,18.85
2018-04-30T19:35:20.815Z,18.81
2018-04-30T19:37:48.436Z,18.77
2018-04-30T19:40:16.013Z,18.76
2018-04-30T19:42:43.591Z,18.76
2018-04-30T19:45:11.210Z,18.71
2018-04-30T19:47:38.891Z,18.60
2018-04-30T19:50:06.550Z,18.45
2018-04-30T19:52:34.148Z,18.28
2018-04-30T19:55:01.703Z,18.11
2018-04-30T19:57:29.283Z,18.04
2018-04-30T19:59:56.915Z,18.01
2018-04-30T20:02:24.501Z,17.95
2018-04-30T20:04:52.133Z,17.88
2018-04-30T20:07:19.770Z,17.78
2018-04-30T20:09:47.347Z,17.75
2018-04-30T20:12:14.922Z,17.68
2018-04-30T20:14:42.755Z,17.65
2018-04-30T20:17:10.431Z,17.61
2018-04-30T20:19:38.090Z,17.55
2018-04-30T20:22:05.718Z,17.46
2018-04-30T20:27:17.940Z,17.39
2018-04-30T20:29:45.519Z,17.39
2018-04-30T20:32:13.195Z,17.44
2018-04-30T20:34:40.857Z,17.41
2018-04-30T20:37:08.437Z,17.34
2018-04-30T20:39:36.388Z,17.21
2018-04-30T20:42:03.996Z,17.18
2018-04-30T20:44:31.649Z,17.12
2018-04-30T20:46:59.155Z,17.02
2018-04-30T20:49:26.868Z,16.94
2018-04-30T20:51:54.448Z,16.90
2018-04-30T20:54:22.074Z,16.97
2018-04-30T20:56:49.680Z,16.88
2018-04-30T20:59:17.252Z,16.78
2018-04-30T21:01:44.836Z,16.66
2018-04-30T21:04:12.587Z,16.60
2018-04-30T21:06:40.159Z,16.51
2018-04-30T21:09:13.710Z,16.50
2018-04-30T21:11:41.515Z,16.53
2018-04-30T21:14:09.177Z,16.48
2018-04-30T21:16:36.851Z,16.41
2018-04-30T21:19:04.507Z,16.41
2018-04-30T21:21:32.081Z,16.38
2018-04-30T21:23:59.849Z,16.35
2018-04-30T21:26:27.437Z,16.29
2018-04-30T21:28:55.057Z,16.28
2018-04-30T21:31:22.680Z,16.27
2018-04-30T21:33:50.275Z,16.21
2018-04-30T21:36:17.887Z,16.12
2018-04-30T21:38:45.490Z,16.20
2018-04-30T21:41:13.071Z,16.22
2018-04-30T21:43:40.638Z,16.15
2018-04-30T21:46:08.372Z,16.10
2018-04-30T21:48:36.048Z,15.98
2018-04-30T21:51:03.716Z,15.94
2018-04-30T21:53:31.309Z,15.92
2018-04-30T21:55:58.878Z,15.98
2018-04-30T21:58:26.479Z,15.99
2018-04-30T22:00:54.158Z,15.99
2018-04-30T22:03:21.818Z,15.92
2018-04-30T22:05:49.641Z,15.95
2018-04-30T22:08:17.243Z,15.92
2018-04-30T22:10:44.815Z,15.85
2018-04-30T22:13:12.447Z,15.84
2018-04-30T22:15:40.126Z,15.90
2018-04-30T22:18:07.772Z,15.83
2018-04-30T22:20:35.344Z,15.77
2018-04-30T22:23:02.954Z,15.69
2018-04-30T22:25:30.551Z,15.64
2018-04-30T22:27:58.129Z,15.56
2018-04-30T22:30:25.782Z,15.50
2018-04-30T22:32:53.362Z,15.40
2018-04-30T22:35:20.998Z,15.37
2018-04-30T22:37:48.663Z,15.27
2018-04-30T22:40:16.331Z,15.22
2018-04-30T22:42:43.909Z,15.15
2018-04-30T22:45:11.535Z,15.15
2018-04-30T22:47:39.122Z,15.19
2018-04-30T22:50:06.765Z,15.11
2018-04-30T22:52:34.383Z,15.03
2018-04-30T22:55:01.950Z,15.01
2018-04-30T22:57:29.537Z,14.94
2018-04-30T22:59:57.139Z,14.88
2018-04-30T23:02:24.717Z,14.84
2018-04-30T23:04:52.324Z,14.77
2018-04-30T23:07:19.943Z,14.76
2018-04-30T23:09:47.524Z,14.71
2018-04-30T23:12:15.174Z,14.71
2018-04-30T23:14:42.996Z,14.73
2018-04-30T23:17:10.661Z,14.74
2018-04-30T23:19:38.307Z,14.68
2018-04-30T23:22:05.919Z,14.77
2018-04-30T23:24:33.499Z,14.76
2018-04-30T23:27:01.298Z,14.72
2018-04-30T23:29:28.914Z,14.67
2018-04-30T23:31:56.501Z,14.77
2018-04-30T23:34:24.155Z,14.78
2018-04-30T23:36:51.990Z,14.87
2018-04-30T23:39:19.606Z,14.86
2018-04-30T23:41:47.186Z,14.76
2018-04-30T23:44:14.803Z,14.80
2018-04-30T23:46:42.596Z,14.70
2018-04-30T23:49:10.468Z,14.71
2018-04-30T23:51:38.134Z,14.80
2018-04-30T23:54:05.714Z,14.80
2018-04-30T23:56:33.448Z,14.75
2018-04-30T23:59:01.040Z,14.69
